Startpagina
METAR-TAF:

METAR-TAF

Vliegvelden :

Flughafen Münster-Osnabrück

Münster-Osnabrück, Duitsland

breedte: 52-08N, lengte: 007-42E, hoogte: 48 m

Actueel weer

Dit bericht is 17 minuten geleden gemaakt, om 23:50 UTC
Wind 3 kt uit het westnoordwesten
Temperatuur 11°C
Vochtigheid 82%
Druk 1025 hPa
Zicht 10 km of meer
geen wolken onder 1500 m en geen cumulonimbus

METAR: EDDG 122350Z 29003KT CAVOK 11/08 Q1025 NOSIG

Tijdstip: 02:07 (00:07 UTC)

Verwachting

Dit bericht is 1 uur en het 7 minuten geleden gemaakt, om 23:00 UTC
Verwachting geldig van 13 om 00 UTC tot 13 om 24 UTC
Wind 5 kt uit het westnoordwesten
Zicht 10 km of meer
Weinig wolken op 3000 ft
Tijdelijke
van 13 om 01 UTC tot 13 om 06 UTC
Wind 2 kt uit variabele richting
Wijzigt naar
van 13 om 17 UTC tot 13 om 20 UTC
Wind 1 kt uit variabele richting

TAF: EDDG 122300Z 1300/1324 30005KT 9999 FEW030 TEMPO 1301/1306 VRB02KT BECMG 1317/1320 VRB01KT

Waarnemingen en weersverwachtingen van meer dan 4000 vliegvelden (METAR en TAF).

De beschikbare stations zijn de gele en rode punten op de kaart.

Ga met uw muis naar het station om de naam te zien.

Klik dan om waarnemingen en weersverwachtingen te zien.

kaart wijzigen: klik op de groene knoppen met een zwart kruis om in te zoomen, op de groene knop met een streepje om uit te zoomen of op de groene pijlen voor aangrenzende kaarten.


METAR-TAF: